Terminal Aerodrome Forecast
Issued by NWS

Home | Current Version | Previous Version | Text Only | Print | Product List | Glossary On
Versions: 1 2 3 4 5 6 7 8 9 10 11 12 13 14 15 16 17 18 19 20 21 22 23 24 25 26 27 28 29 30 31 32 33 34 35 36 37
488
FTUS43 KDVN 051124
TAFCID
TAF
KCID 051124Z 0512/0612 21006KT 1/4SM FG VV002
     FM051600 16010KT 1SM BR OVC009
     FM052100 17011KT 4SM BR BKN250
     FM060800 21008KT 4SM BR OVC015=

USA.gov is the U.S. government's official web portal to all federal, state and local government web resources and services.